Time;durP1;ratioP1;P1;durP2;ratioP2;P2;SDS_P1;SDS_P2;PMS_P1;PMS_P2;Temp;Humidity;BMP_temperature;BMP_pressure;BME280_temperature;BME280_humidity;BME280_pressure;Samples;Min_cycle;Max_cycle;Signal;HPM_P1;HPM_P2
2022/05/08 00:01:35;;;;;;;6.63;3.35;;;;;;;;;;5073468;28;20056;-44
2022/05/08 00:04:01;;;;;;;9.48;3.47;;;;;;;;;;5073449;28;20025;-43
2022/05/08 00:06:27;;;;;;;15.18;3.85;;;;;;;;;;5073393;28;20078;-44
2022/05/08 00:08:53;;;;;;;8.55;3.40;;;;;;;;;;5073343;28;20025;-44
2022/05/08 00:11:19;;;;;;;4.72;3.17;;;;;;;;;;5073252;28;20510;-44
2022/05/08 00:13:47;;;;;;;4.90;3.13;;;;;;;;;;5073386;28;20020;-44
2022/05/08 00:16:13;;;;;;;5.25;2.92;;;;;;;;;;5073384;28;20025;-44
2022/05/08 00:18:39;;;;;;;5.85;3.10;;;;;;;;;;5073174;28;20476;-45
2022/05/08 00:21:06;;;;;;;5.90;3.33;;;;;;;;;;5073334;28;20035;-44
2022/05/08 00:23:33;;;;;;;6.13;2.90;;;;;;;;;;5073241;28;20090;-43
2022/05/08 00:25:59;;;;;;;6.28;3.00;;;;;;;;;;5073334;28;20112;-44
2022/05/08 00:28:25;;;;;;;9.88;3.65;;;;;;;;;;5073258;28;20033;-44
2022/05/08 00:30:53;;;;;;;8.05;3.92;;;;;;;;;;5073209;28;20026;-44
2022/05/08 00:33:20;;;;;;;6.53;3.38;;;;;;;;;;5073132;28;20153;-45
2022/05/08 00:35:46;;;;;;;6.85;3.42;;;;;;;;;;5072998;28;20017;-44
2022/05/08 00:38:12;;;;;;;8.00;3.42;;;;;;;;;;5073101;28;20032;-44
2022/05/08 00:40:38;;;;;;;8.88;3.97;;;;;;;;;;5072969;28;20028;-44
2022/05/08 00:43:22;;;;;;;6.57;3.08;;;;;;;;;;5073240;28;20472;-44
2022/05/08 00:45:48;;;;;;;10.27;3.40;;;;;;;;;;5073126;28;20021;-44
2022/05/08 00:48:14;;;;;;;8.95;3.85;;;;;;;;;;5072833;28;20029;-44
2022/05/08 00:50:41;;;;;;;7.95;3.30;;;;;;;;;;5073030;28;20021;-44
2022/05/08 00:53:07;;;;;;;5.15;3.13;;;;;;;;;;5073144;28;20410;-45
2022/05/08 00:55:33;;;;;;;9.50;3.50;;;;;;;;;;5073029;28;20017;-44
2022/05/08 00:58:00;;;;;;;6.07;3.17;;;;;;;;;;5072933;28;20040;-44
2022/05/08 01:00:26;;;;;;;5.35;3.45;;;;;;;;;;5073027;28;20017;-44
2022/05/08 01:02:57;;;;;;;7.38;3.53;;;;;;;;;;5072863;28;20029;-44
2022/05/08 01:05:25;;;;;;;7.47;3.15;;;;;;;;;;5072867;28;20024;-44
2022/05/08 01:07:51;;;;;;;8.27;3.28;;;;;;;;;;5072846;28;20021;-45
2022/05/08 01:10:25;;;;;;;5.00;3.28;;;;;;;;;;5072621;28;20120;-44
2022/05/08 01:12:51;;;;;;;7.80;2.88;;;;;;;;;;5072770;28;20028;-44
2022/05/08 01:15:20;;;;;;;8.43;3.45;;;;;;;;;;5072713;28;20111;-44
2022/05/08 01:17:48;;;;;;;5.07;2.78;;;;;;;;;;5072832;28;20107;-44
2022/05/08 01:20:15;;;;;;;10.80;3.70;;;;;;;;;;5072660;28;20031;-44
2022/05/08 01:22:41;;;;;;;9.07;3.55;;;;;;;;;;5073087;28;20052;-45
2022/05/08 01:25:08;;;;;;;11.38;3.67;;;;;;;;;;5072919;28;20437;-44
2022/05/08 01:27:34;;;;;;;7.50;3.40;;;;;;;;;;5072883;28;20078;-44
2022/05/08 01:30:00;;;;;;;8.93;3.42;;;;;;;;;;5072622;28;20108;-44
2022/05/08 01:32:26;;;;;;;6.97;3.30;;;;;;;;;;5072549;28;20379;-44
2022/05/08 01:34:52;;;;;;;9.77;3.13;;;;;;;;;;5074464;28;20025;-44
2022/05/08 01:37:18;;;;;;;6.75;3.67;;;;;;;;;;5075995;28;20471;-44
2022/05/08 01:39:47;;;;;;;6.68;3.03;;;;;;;;;;5076016;28;20119;-44
2022/05/08 01:42:13;;;;;;;7.70;3.03;;;;;;;;;;5076139;28;20025;-45
2022/05/08 01:44:39;;;;;;;7.18;3.30;;;;;;;;;;5076308;28;20024;-44
2022/05/08 01:49:50;;;;;;;7.30;3.42;;;;;;;;;;5076059;28;20094;-44
2022/05/08 01:52:16;;;;;;;7.47;3.15;;;;;;;;;;5075981;28;20108;-44
2022/05/08 01:54:45;;;;;;;11.02;3.25;;;;;;;;;;5075862;28;20020;-44
2022/05/08 01:57:11;;;;;;;6.38;3.00;;;;;;;;;;5075921;28;20384;-44
2022/05/08 01:59:37;;;;;;;8.65;3.30;;;;;;;;;;5075619;28;20040;-44
2022/05/08 02:02:03;;;;;;;4.63;3.03;;;;;;;;;;5075658;28;20107;-44
2022/05/08 02:04:32;;;;;;;6.47;3.55;;;;;;;;;;5075557;28;20380;-44
2022/05/08 02:06:58;;;;;;;6.85;3.10;;;;;;;;;;5075674;28;20042;-45
2022/05/08 02:09:24;;;;;;;5.82;3.67;;;;;;;;;;5075352;28;20048;-44
2022/05/08 02:11:50;;;;;;;6.82;2.83;;;;;;;;;;5075582;28;20025;-44
2022/05/08 02:14:16;;;;;;;6.68;3.20;;;;;;;;;;5075337;28;20040;-44
2022/05/08 02:16:42;;;;;;;5.80;2.85;;;;;;;;;;5075896;28;20020;-44
2022/05/08 02:19:08;;;;;;;7.47;2.97;;;;;;;;;;5075313;28;20029;-44
2022/05/08 02:21:37;;;;;;;7.95;2.90;;;;;;;;;;5075259;28;20024;-43
2022/05/08 02:24:06;;;;;;;5.75;2.70;;;;;;;;;;5075486;28;20103;-44
2022/05/08 02:26:32;;;;;;;5.18;2.85;;;;;;;;;;5075270;28;20381;-44
2022/05/08 02:28:58;;;;;;;5.93;2.70;;;;;;;;;;5075053;28;20028;-44
2022/05/08 02:31:24;;;;;;;4.57;2.90;;;;;;;;;;5075112;28;20027;-45
2022/05/08 02:33:50;;;;;;;5.25;2.83;;;;;;;;;;5075358;28;20468;-44
2022/05/08 02:36:18;;;;;;;3.60;2.45;;;;;;;;;;5075155;28;20020;-44
2022/05/08 02:38:44;;;;;;;6.60;2.55;;;;;;;;;;5074699;28;20451;-44
2022/05/08 02:41:10;;;;;;;5.55;2.55;;;;;;;;;;5075059;28;20025;-44
2022/05/08 02:43:37;;;;;;;5.03;2.60;;;;;;;;;;5074858;28;20104;-44
2022/05/08 02:46:03;;;;;;;8.70;2.47;;;;;;;;;;5056580;28;20032;-44
2022/05/08 02:48:29;;;;;;;5.20;2.67;;;;;;;;;;5074847;28;20107;-44
2022/05/08 02:50:55;;;;;;;6.22;2.53;;;;;;;;;;5074661;28;20078;-45
2022/05/08 02:53:21;;;;;;;5.95;2.80;;;;;;;;;;5074716;28;20112;-44
2022/05/08 02:58:32;;;;;;;7.35;2.85;;;;;;;;;;5074550;28;20094;-44
2022/05/08 03:00:59;;;;;;;6.80;3.25;;;;;;;;;;5074553;28;20056;-44
2022/05/08 03:03:25;;;;;;;5.95;2.80;;;;;;;;;;5074629;28;20107;-45
2022/05/08 03:05:52;;;;;;;6.32;2.67;;;;;;;;;;5074399;28;20028;-44
2022/05/08 03:08:19;;;;;;;4.68;2.92;;;;;;;;;;5074431;28;20029;-44
2022/05/08 03:13:35;;;;;;;4.45;2.38;;;;;;;;;;5074611;28;20060;-44
2022/05/08 03:16:03;;;;;;;6.13;2.70;;;;;;;;;;5074208;28;20021;-45
2022/05/08 03:18:30;;;;;;;6.75;2.60;;;;;;;;;;5074145;28;20048;-44
2022/05/08 03:21:01;;;;;;;5.03;2.63;;;;;;;;;;5074155;28;20089;-44
2022/05/08 03:23:28;;;;;;;4.13;2.65;;;;;;;;;;5074132;28;20112;-43
2022/05/08 03:25:54;;;;;;;6.63;2.53;;;;;;;;;;5073941;28;20108;-44
2022/05/08 03:28:22;;;;;;;7.13;2.90;;;;;;;;;;5074162;28;20090;-44
2022/05/08 03:30:48;;;;;;;8.25;3.03;;;;;;;;;;5073978;28;20149;-44
2022/05/08 03:33:15;;;;;;;5.65;2.78;;;;;;;;;;5073996;28;20111;-44
2022/05/08 03:35:41;;;;;;;6.35;2.80;;;;;;;;;;5073952;28;20024;-44
2022/05/08 03:38:08;;;;;;;5.07;2.90;;;;;;;;;;5073709;28;20032;-44
2022/05/08 03:40:34;;;;;;;8.35;2.65;;;;;;;;;;5073609;28;20020;-44
2022/05/08 03:43:01;;;;;;;7.55;3.17;;;;;;;;;;5073979;28;20029;-44
2022/05/08 03:45:31;;;;;;;5.40;2.65;;;;;;;;;;5073566;28;20494;-45
2022/05/08 03:48:00;;;;;;;9.32;4.05;;;;;;;;;;5073791;28;20111;-43
2022/05/08 03:50:29;;;;;;;10.82;3.60;;;;;;;;;;5073676;28;20066;-44
2022/05/08 03:52:55;;;;;;;7.70;4.22;;;;;;;;;;5073653;28;20020;-44
2022/05/08 03:55:21;;;;;;;10.70;3.67;;;;;;;;;;5073417;28;20385;-46
2022/05/08 03:57:47;;;;;;;5.95;2.63;;;;;;;;;;5072945;28;20025;-44
2022/05/08 04:00:14;;;;;;;12.00;4.95;;;;;;;;;;5073596;28;20078;-44
2022/05/08 04:02:40;;;;;;;9.32;3.15;;;;;;;;;;5073599;28;20023;-44
2022/05/08 04:05:07;;;;;;;6.63;2.78;;;;;;;;;;5073369;28;20472;-43
2022/05/08 04:07:37;;;;;;;6.90;3.65;;;;;;;;;;5073314;28;20365;-43
2022/05/08 04:10:03;;;;;;;10.15;2.67;;;;;;;;;;5072925;28;20114;-44
2022/05/08 04:12:29;;;;;;;5.70;3.13;;;;;;;;;;5073611;28;20028;-44
2022/05/08 04:14:56;;;;;;;7.63;2.70;;;;;;;;;;5073533;28;20094;-43
2022/05/08 04:17:22;;;;;;;19.75;8.45;;;;;;;;;;5073429;28;20027;-44
2022/05/08 04:19:48;;;;;;;14.07;6.93;;;;;;;;;;5073270;28;20382;-44
2022/05/08 04:24:58;;;;;;;9.88;4.43;;;;;;;;;;5073622;28;20043;-44
2022/05/08 04:27:24;;;;;;;12.90;5.85;;;;;;;;;;5073157;28;20090;-45
2022/05/08 04:29:50;;;;;;;7.45;3.78;;;;;;;;;;5073424;28;20025;-44
2022/05/08 04:32:17;;;;;;;9.40;3.28;;;;;;;;;;5073308;28;20035;-45
2022/05/08 04:34:43;;;;;;;12.15;3.35;;;;;;;;;;5073119;28;20363;-44
2022/05/08 04:37:09;;;;;;;7.50;3.85;;;;;;;;;;5073053;28;20025;-44
2022/05/08 04:39:36;;;;;;;7.68;3.20;;;;;;;;;;5073237;28;20453;-44
2022/05/08 04:42:02;;;;;;;9.05;4.60;;;;;;;;;;5073075;28;20025;-44
2022/05/08 04:44:33;;;;;;;6.68;3.72;;;;;;;;;;5073187;28;20032;-44
2022/05/08 04:46:59;;;;;;;7.72;4.15;;;;;;;;;;5073123;28;20046;-44
2022/05/08 04:49:25;;;;;;;9.60;3.95;;;;;;;;;;5073151;28;20017;-44
2022/05/08 04:51:51;;;;;;;7.18;3.30;;;;;;;;;;5072759;28;20078;-45
2022/05/08 04:54:17;;;;;;;6.65;3.33;;;;;;;;;;5073144;28;20024;-44
2022/05/08 04:56:43;;;;;;;11.63;4.43;;;;;;;;;;5073068;28;20098;-44
2022/05/08 04:59:09;;;;;;;5.78;3.50;;;;;;;;;;5072838;28;20465;-44
2022/05/08 05:01:35;;;;;;;7.60;3.42;;;;;;;;;;5072944;28;20070;-44
2022/05/08 05:04:02;;;;;;;6.50;3.88;;;;;;;;;;5072914;28;20028;-44
2022/05/08 05:06:28;;;;;;;7.00;2.90;;;;;;;;;;5072849;28;20021;-44
2022/05/08 05:08:56;;;;;;;11.15;4.90;;;;;;;;;;5073184;28;20537;-44
2022/05/08 05:11:22;;;;;;;9.18;3.40;;;;;;;;;;5076340;28;20070;-44
2022/05/08 05:13:48;;;;;;;6.43;3.28;;;;;;;;;;5076622;28;20024;-44
2022/05/08 05:16:14;;;;;;;10.63;5.00;;;;;;;;;;5076494;28;20107;-44
2022/05/08 05:18:40;;;;;;;6.90;2.80;;;;;;;;;;5076384;28;20064;-47
2022/05/08 05:21:06;;;;;;;7.78;3.58;;;;;;;;;;5076466;28;20021;-43
2022/05/08 05:23:36;;;;;;;10.43;4.07;;;;;;;;;;5076325;28;20028;-44
2022/05/08 05:26:02;;;;;;;8.45;3.03;;;;;;;;;;5076637;28;20025;-44
2022/05/08 05:28:29;;;;;;;6.35;3.17;;;;;;;;;;5076345;28;20472;-43
2022/05/08 05:30:55;;;;;;;5.07;3.03;;;;;;;;;;5076192;28;20480;-44
2022/05/08 05:33:21;;;;;;;5.45;2.85;;;;;;;;;;5076184;28;20060;-44
2022/05/08 05:35:47;;;;;;;10.60;3.25;;;;;;;;;;5076067;28;20491;-44
2022/05/08 05:38:13;;;;;;;5.10;3.30;;;;;;;;;;5075987;28;20083;-43
2022/05/08 05:40:42;;;;;;;10.32;3.28;;;;;;;;;;5076412;28;20022;-44
2022/05/08 05:43:08;;;;;;;6.45;2.85;;;;;;;;;;5076166;28;20050;-44
2022/05/08 05:45:34;;;;;;;6.90;2.70;;;;;;;;;;5076390;28;20559;-44
2022/05/08 05:48:00;;;;;;;9.50;3.38;;;;;;;;;;5075962;28;20024;-44
2022/05/08 05:50:29;;;;;;;6.18;2.40;;;;;;;;;;5075798;28;20060;-44
2022/05/08 05:52:56;;;;;;;7.03;3.13;;;;;;;;;;5075944;28;20032;-44
2022/05/08 05:55:22;;;;;;;4.63;3.03;;;;;;;;;;5076142;28;20028;-44
2022/05/08 05:57:50;;;;;;;6.82;3.13;;;;;;;;;;5075713;28;20468;-44
2022/05/08 06:00:18;;;;;;;7.43;2.72;;;;;;;;;;5075943;28;20020;-44
2022/05/08 06:02:45;;;;;;;7.32;2.97;;;;;;;;;;5075711;28;20058;-44
2022/05/08 06:05:15;;;;;;;4.68;2.90;;;;;;;;;;5075655;28;20108;-44
2022/05/08 06:07:42;;;;;;;9.57;3.88;;;;;;;;;;5075563;28;20499;-44
2022/05/08 06:10:09;;;;;;;6.72;2.65;;;;;;;;;;5075415;28;20052;-44
2022/05/08 06:12:35;;;;;;;7.43;2.90;;;;;;;;;;5075809;28;20153;-44
2022/05/08 06:15:02;;;;;;;6.00;2.90;;;;;;;;;;5075747;28;20032;-44
2022/05/08 06:17:28;;;;;;;6.03;2.95;;;;;;;;;;5075521;28;20082;-44
2022/05/08 06:19:54;;;;;;;8.50;2.80;;;;;;;;;;5074680;28;20029;-44
2022/05/08 06:22:20;;;;;;;5.65;2.95;;;;;;;;;;5075158;28;20021;-44
2022/05/08 06:24:46;;;;;;;4.57;2.40;;;;;;;;;;5075510;28;20028;-44
2022/05/08 06:27:12;;;;;;;5.85;2.55;;;;;;;;;;5075413;28;20031;-43
2022/05/08 06:29:39;;;;;;;7.50;3.03;;;;;;;;;;5075253;28;20036;-44
2022/05/08 06:32:05;;;;;;;6.90;2.55;;;;;;;;;;5075418;28;20028;-44
2022/05/08 06:34:33;;;;;;;6.00;2.65;;;;;;;;;;5075161;28;20498;-44
2022/05/08 06:36:59;;;;;;;5.05;2.58;;;;;;;;;;5074839;28;20378;-45
2022/05/08 06:39:26;;;;;;;4.03;2.50;;;;;;;;;;5075029;28;20037;-44
2022/05/08 06:41:52;;;;;;;7.18;2.47;;;;;;;;;;5074875;28;20094;-44
2022/05/08 06:44:18;;;;;;;6.82;2.28;;;;;;;;;;5074976;28;20364;-45
2022/05/08 06:46:44;;;;;;;6.55;2.40;;;;;;;;;;5074962;28;20031;-44
2022/05/08 06:49:10;;;;;;;8.82;2.60;;;;;;;;;;5074826;28;20027;-44
2022/05/08 06:51:36;;;;;;;4.43;2.13;;;;;;;;;;5074450;28;20020;-45
2022/05/08 06:54:05;;;;;;;5.95;2.17;;;;;;;;;;5074789;28;20028;-45
2022/05/08 06:56:35;;;;;;;8.10;2.70;;;;;;;;;;5074698;28;20020;-45
2022/05/08 07:01:45;;;;;;;6.80;2.92;;;;;;;;;;5074892;28;20097;-45
2022/05/08 07:04:12;;;;;;;7.47;2.50;;;;;;;;;;5074607;28;20020;-44
2022/05/08 07:06:39;;;;;;;5.45;2.30;;;;;;;;;;5074400;28;20020;-46
2022/05/08 07:09:05;;;;;;;3.92;2.42;;;;;;;;;;5074343;28;20504;-44
2022/05/08 07:11:32;;;;;;;6.05;2.55;;;;;;;;;;5074471;28;20530;-44
2022/05/08 07:13:58;;;;;;;6.93;2.08;;;;;;;;;;5074335;28;20082;-44
2022/05/08 07:16:24;;;;;;;8.45;3.10;;;;;;;;;;5074273;28;20384;-45
2022/05/08 07:18:51;;;;;;;5.40;2.55;;;;;;;;;;5074079;28;20032;-45
2022/05/08 07:21:19;;;;;;;6.85;2.75;;;;;;;;;;5073916;28;20028;-45
2022/05/08 07:23:45;;;;;;;4.53;2.08;;;;;;;;;;5074007;28;20507;-44
2022/05/08 07:26:11;;;;;;;8.82;2.20;;;;;;;;;;5074321;28;20021;-45
2022/05/08 07:28:37;;;;;;;5.85;2.58;;;;;;;;;;5074106;28;20032;-44
2022/05/08 07:31:03;;;;;;;5.85;2.00;;;;;;;;;;5073728;28;20507;-45
2022/05/08 07:33:34;;;;;;;6.90;2.30;;;;;;;;;;5073366;28;20025;-45
2022/05/08 07:36:15;;;;;;;4.28;2.13;;;;;;;;;;5074299;28;20028;-44
2022/05/08 07:38:42;;;;;;;8.48;2.42;;;;;;;;;;5073765;28;20422;-44
2022/05/08 07:41:11;;;;;;;5.65;2.30;;;;;;;;;;5073679;28;20384;-45
2022/05/08 07:43:38;;;;;;;4.80;2.63;;;;;;;;;;5074333;28;20017;-44
2022/05/08 07:46:04;;;;;;;5.00;2.10;;;;;;;;;;5074178;28;20036;-44
2022/05/08 07:48:30;;;;;;;8.68;2.50;;;;;;;;;;5074162;28;20441;-45
2022/05/08 07:50:59;;;;;;;4.70;2.20;;;;;;;;;;5073826;28;20423;-46
2022/05/08 07:53:25;;;;;;;5.78;2.38;;;;;;;;;;5073579;28;20562;-43
2022/05/08 07:55:52;;;;;;;9.90;2.25;;;;;;;;;;5073672;28;20074;-44
2022/05/08 07:58:21;;;;;;;6.60;2.20;;;;;;;;;;5073771;28;20033;-45
2022/05/08 08:00:49;;;;;;;4.93;2.08;;;;;;;;;;5073478;28;20115;-44
2022/05/08 08:03:15;;;;;;;3.30;2.00;;;;;;;;;;5073719;28;20024;-44
2022/05/08 08:05:41;;;;;;;8.60;2.50;;;;;;;;;;5073513;28;20020;-45
2022/05/08 08:08:07;;;;;;;4.28;1.95;;;;;;;;;;5073480;28;20029;-44
2022/05/08 08:10:33;;;;;;;4.65;2.30;;;;;;;;;;5073463;28;20048;-44
2022/05/08 08:12:59;;;;;;;3.85;2.28;;;;;;;;;;5073492;28;20495;-45
2022/05/08 08:15:26;;;;;;;3.05;1.60;;;;;;;;;;5073427;28;20154;-45
2022/05/08 08:17:52;;;;;;;7.35;2.45;;;;;;;;;;5073237;28;20035;-44
2022/05/08 08:20:18;;;;;;;4.60;2.88;;;;;;;;;;5073130;28;20037;-44
2022/05/08 08:22:44;;;;;;;7.38;2.85;;;;;;;;;;5073403;28;20024;-45
2022/05/08 08:25:10;;;;;;;9.15;3.03;;;;;;;;;;5073349;28;20495;-44
2022/05/08 08:27:36;;;;;;;9.68;2.67;;;;;;;;;;5073094;28;20050;-45
2022/05/08 08:30:03;;;;;;;4.38;2.40;;;;;;;;;;5073182;28;20021;-45
2022/05/08 08:32:31;;;;;;;3.90;2.35;;;;;;;;;;5073186;28;20032;-45
2022/05/08 08:34:58;;;;;;;6.22;2.22;;;;;;;;;;5073151;28;20031;-44
2022/05/08 08:37:24;;;;;;;8.02;2.40;;;;;;;;;;5073094;28;20024;-45
2022/05/08 08:39:50;;;;;;;3.80;2.33;;;;;;;;;;5072889;28;20036;-45
2022/05/08 08:42:22;;;;;;;9.40;4.13;;;;;;;;;;5073010;28;20032;-44
2022/05/08 08:47:46;;;;;;;7.45;3.95;;;;;;;;;;5077544;28;20059;-45
2022/05/08 08:50:12;;;;;;;9.77;5.18;;;;;;;;;;5077127;28;20399;-45
2022/05/08 08:52:38;;;;;;;5.20;3.10;;;;;;;;;;5077144;28;20021;-45
2022/05/08 08:55:08;;;;;;;3.78;2.47;;;;;;;;;;5077051;28;20021;-44
2022/05/08 08:57:34;;;;;;;8.57;3.10;;;;;;;;;;5077064;28;20078;-45
2022/05/08 09:00:03;;;;;;;3.35;2.17;;;;;;;;;;5040276;28;20484;-44
2022/05/08 09:02:29;;;;;;;3.33;2.20;;;;;;;;;;5056621;28;20053;-44
2022/05/08 09:04:57;;;;;;;6.03;3.13;;;;;;;;;;5056869;28;20452;-43
2022/05/08 09:07:38;;;;;;;8.27;2.70;;;;;;;;;;5056682;28;20033;-44
2022/05/08 09:10:07;;;;;;;6.40;3.35;;;;;;;;;;5055975;28;20037;-43
2022/05/08 09:12:33;;;;;;;7.97;3.58;;;;;;;;;;5056055;28;20108;-43
2022/05/08 09:14:59;;;;;;;8.18;4.38;;;;;;;;;;5056199;28;20044;-44
2022/05/08 09:17:42;;;;;;;12.52;2.90;;;;;;;;;;5056086;28;20086;-42
2022/05/08 09:20:24;;;;;;;5.20;3.20;;;;;;;;;;5054286;28;20106;-41
2022/05/08 09:23:09;;;;;;;5.97;2.70;;;;;;;;;;5052937;28;20029;-41
2022/05/08 09:25:52;;;;;;;4.03;2.30;;;;;;;;;;5055206;28;20025;-44
2022/05/08 09:28:41;;;;;;;6.80;2.40;;;;;;;;;;5055303;28;20160;-42
2022/05/08 09:31:11;;;;;;;8.50;2.80;;;;;;;;;;4955634;29;20031;-43
2022/05/08 09:33:38;;;;;;;6.25;2.60;;;;;;;;;;4955531;29;20158;-43
2022/05/08 09:36:09;;;;;;;4.03;2.78;;;;;;;;;;4953035;29;20031;-44
2022/05/08 09:38:44;;;;;;;6.10;2.37;;;;;;;;;;4955531;28;20041;-44
2022/05/08 09:41:10;;;;;;;6.30;2.22;;;;;;;;;;4955615;29;20789;-44
2022/05/08 09:43:37;;;;;;;4.13;2.25;;;;;;;;;;4955990;29;20027;-42
2022/05/08 09:46:04;;;;;;;5.20;2.30;;;;;;;;;;4955683;29;20031;-43
2022/05/08 09:48:34;;;;;;;4.90;2.05;;;;;;;;;;4955838;29;20165;-42
2022/05/08 09:51:01;;;;;;;6.68;2.55;;;;;;;;;;4955665;29;20054;-42
2022/05/08 09:53:28;;;;;;;5.45;2.25;;;;;;;;;;4956000;29;20078;-44
2022/05/08 09:55:55;;;;;;;4.85;2.55;;;;;;;;;;4955032;28;20039;-42
2022/05/08 09:58:21;;;;;;;7.45;2.50;;;;;;;;;;4955644;29;20094;-42
2022/05/08 10:00:48;;;;;;;5.38;2.40;;;;;;;;;;4955540;28;20054;-41
2022/05/08 10:03:15;;;;;;;5.97;2.22;;;;;;;;;;4955506;29;20373;-43
2022/05/08 10:05:44;;;;;;;5.13;2.28;;;;;;;;;;4955394;29;20492;-41
2022/05/08 10:08:13;;;;;;;3.40;2.30;;;;;;;;;;5007490;28;20540;-41
2022/05/08 10:16:47;;;;;;;7.28;2.45;;;;;;;;;;5053236;28;20111;-43
2022/05/08 10:19:21;;;;;;;3.20;2.22;;;;;;;;;;5054150;28;20044;-41
2022/05/08 10:24:47;;;;;;;3.53;2.25;;;;;;;;;;5012971;28;20026;-42
2022/05/08 10:27:16;;;;;;;5.07;2.50;;;;;;;;;;5012943;28;20068;-43
2022/05/08 10:29:42;;;;;;;6.55;2.35;;;;;;;;;;5012908;28;20482;-41
2022/05/08 10:32:11;;;;;;;6.25;2.92;;;;;;;;;;5012783;28;20053;-44
2022/05/08 10:34:39;;;;;;;4.53;2.80;;;;;;;;;;5009913;28;20401;-41
2022/05/08 10:37:13;;;;;;;5.93;3.13;;;;;;;;;;5012382;28;20034;-42
2022/05/08 10:39:43;;;;;;;6.60;3.10;;;;;;;;;;5010544;28;20045;-41
2022/05/08 10:42:27;;;;;;;4.68;2.53;;;;;;;;;;5012657;28;20042;-42
2022/05/08 10:44:54;;;;;;;4.55;2.90;;;;;;;;;;5011677;28;20029;-42
2022/05/08 10:47:36;;;;;;;5.53;2.65;;;;;;;;;;5012694;28;20065;-42
2022/05/08 10:50:06;;;;;;;6.05;2.67;;;;;;;;;;5012950;28;20427;-42
2022/05/08 10:52:33;;;;;;;4.00;2.40;;;;;;;;;;5013072;28;20504;-42
2022/05/08 10:55:03;;;;;;;3.50;2.28;;;;;;;;;;5012828;28;20034;-42
2022/05/08 10:57:34;;;;;;;6.43;2.63;;;;;;;;;;5012859;28;20041;-42
2022/05/08 11:00:01;;;;;;;6.70;2.95;;;;;;;;;;5024703;28;20068;-42
2022/05/08 11:02:40;;;;;;;5.65;2.05;;;;;;;;;;5049498;28;20024;-42
2022/05/08 11:05:10;;;;;;;6.28;2.65;;;;;;;;;;5036603;28;20028;-41
2022/05/08 11:07:40;;;;;;;4.27;2.37;;;;;;;;;;5036554;28;20440;-41
2022/05/08 11:10:27;;;;;;;5.32;2.05;;;;;;;;;;5054167;28;20044;-42
2022/05/08 11:12:56;;;;;;;3.58;2.60;;;;;;;;;;5053957;28;20025;-41
2022/05/08 11:15:23;;;;;;;4.63;2.30;;;;;;;;;;5051518;28;20473;-42
2022/05/08 11:18:04;;;;;;;10.40;2.47;;;;;;;;;;5053666;28;20096;-42
2022/05/08 11:20:33;;;;;;;;;;;;;;;;;;5052625;28;20033;-41
2022/05/08 11:22:59;;;;;;;2.83;2.42;;;;;;;;;;5053527;28;20447;-42
2022/05/08 11:25:25;;;;;;;6.35;2.67;;;;;;;;;;5053554;28;20244;-42
2022/05/08 11:27:52;;;;;;;4.82;2.60;;;;;;;;;;5053603;28;20021;-42
2022/05/08 11:30:35;;;;;;;3.13;2.72;;;;;;;;;;5053377;28;20021;-42
2022/05/08 11:36:09;;;;;;;10.18;5.15;;;;;;;;;;5051889;28;20147;-42
2022/05/08 11:38:41;;;;;;;8.13;3.78;;;;;;;;;;5054219;28;20174;-42
2022/05/08 11:41:08;;;;;;;3.78;2.58;;;;;;;;;;5069212;28;20136;-41
2022/05/08 11:43:41;;;;;;;6.35;3.03;;;;;;;;;;5053821;28;20021;-42
2022/05/08 11:46:08;;;;;;;7.03;3.30;;;;;;;;;;5053879;28;20032;-41
2022/05/08 11:48:40;;;;;;;5.35;2.67;;;;;;;;;;5053650;28;20057;-42
2022/05/08 11:51:20;;;;;;;5.85;2.33;;;;;;;;;;5050947;28;20020;-45
2022/05/08 11:53:50;;;;;;;5.28;2.80;;;;;;;;;;5046748;28;20028;-42
2022/05/08 11:56:25;;;;;;;5.25;2.65;;;;;;;;;;5049504;28;20036;-43
2022/05/08 11:58:51;;;;;;;5.28;2.95;;;;;;;;;;5048850;28;20075;-43
2022/05/08 12:01:22;;;;;;;6.78;2.45;;;;;;;;;;5049097;28;20510;-43
2022/05/08 12:03:48;;;;;;;3.97;2.47;;;;;;;;;;5049119;28;20028;-43
2022/05/08 12:06:14;;;;;;;5.28;2.75;;;;;;;;;;5049242;28;20488;-42
2022/05/08 12:08:41;;;;;;;6.63;3.17;;;;;;;;;;5049360;28;20082;-44
2022/05/08 12:11:07;;;;;;;4.55;2.47;;;;;;;;;;5048918;28;20105;-42
2022/05/08 12:13:34;;;;;;;5.45;3.22;;;;;;;;;;5049267;28;20507;-44
2022/05/08 12:16:16;;;;;;;4.38;2.42;;;;;;;;;;5049142;28;20040;-43
2022/05/08 12:19:00;;;;;;;7.35;3.42;;;;;;;;;;5048325;28;20025;-42
2022/05/08 12:21:29;;;;;;;3.88;2.70;;;;;;;;;;5048816;28;20032;-42
2022/05/08 12:23:56;;;;;;;4.40;2.60;;;;;;;;;;5048606;28;20025;-43
2022/05/08 12:26:22;;;;;;;7.40;3.22;;;;;;;;;;5024540;28;20025;-44
2022/05/08 12:28:50;;;;;;;5.28;2.70;;;;;;;;;;5048908;28;20404;-43
2022/05/08 12:31:16;;;;;;;3.45;2.47;;;;;;;;;;5048593;28;20476;-43
2022/05/08 12:33:42;;;;;;;6.47;2.58;;;;;;;;;;5048871;28;20040;-44
2022/05/08 12:36:08;;;;;;;6.07;2.72;;;;;;;;;;5033973;28;20021;-42
2022/05/08 12:38:34;;;;;;;4.18;2.72;;;;;;;;;;5048804;28;20327;-43
2022/05/08 12:41:00;;;;;;;5.30;2.85;;;;;;;;;;5046666;28;20040;-42
2022/05/08 12:43:26;;;;;;;7.47;2.60;;;;;;;;;;5048835;28;20032;-43
2022/05/08 12:45:52;;;;;;;8.70;3.05;;;;;;;;;;5049214;28;20017;-43
2022/05/08 12:48:21;;;;;;;6.82;3.65;;;;;;;;;;5048872;28;20032;-43
2022/05/08 12:50:48;;;;;;;5.07;2.53;;;;;;;;;;5048676;28;20032;-44
2022/05/08 12:53:14;;;;;;;5.45;2.50;;;;;;;;;;5047457;28;20013;-43
2022/05/08 12:55:40;;;;;;;4.78;2.20;;;;;;;;;;5048334;28;20093;-43
2022/05/08 13:00:52;;;;;;;6.95;3.70;;;;;;;;;;5046433;28;20168;-43
2022/05/08 13:03:18;;;;;;;5.55;3.45;;;;;;;;;;5048662;28;20070;-45
2022/05/08 13:05:44;;;;;;;7.85;4.85;;;;;;;;;;5048260;28;20369;-45
2022/05/08 13:08:10;;;;;;;5.75;3.33;;;;;;;;;;5048711;28;20495;-44
2022/05/08 13:10:36;;;;;;;9.98;5.70;;;;;;;;;;5047377;28;20139;-44
2022/05/08 13:13:02;;;;;;;9.93;5.45;;;;;;;;;;5048646;28;20029;-46
2022/05/08 13:15:28;;;;;;;12.10;5.60;;;;;;;;;;5047982;28;20029;-43
2022/05/08 13:17:57;;;;;;;6.65;3.63;;;;;;;;;;5048382;28;20140;-44
2022/05/08 13:20:24;;;;;;;6.38;4.20;;;;;;;;;;5048558;28;20029;-44
2022/05/08 13:22:50;;;;;;;6.63;2.45;;;;;;;;;;5048727;28;20020;-45
2022/05/08 13:25:16;;;;;;;6.47;4.47;;;;;;;;;;5048480;28;20032;-44
2022/05/08 13:27:44;;;;;;;6.60;4.60;;;;;;;;;;5047930;28;20419;-44
2022/05/08 13:30:10;;;;;;;7.43;4.65;;;;;;;;;;5047950;28;20066;-45
2022/05/08 13:32:37;;;;;;;7.78;4.90;;;;;;;;;;5052201;28;20032;-44
2022/05/08 13:35:04;;;;;;;7.15;4.45;;;;;;;;;;5052953;28;20449;-44
2022/05/08 13:37:30;;;;;;;3.63;2.50;;;;;;;;;;5051864;28;20156;-46
2022/05/08 13:39:59;;;;;;;4.78;2.35;;;;;;;;;;5052104;28;20053;-43
2022/05/08 13:42:25;;;;;;;4.68;2.10;;;;;;;;;;5050130;28;20020;-42
2022/05/08 13:44:55;;;;;;;4.70;2.53;;;;;;;;;;5052495;28;20051;-42
2022/05/08 13:47:24;;;;;;;2.88;2.28;;;;;;;;;;5051905;28;20074;-43
2022/05/08 13:49:50;;;;;;;4.75;3.30;;;;;;;;;;5052588;28;20021;-44
2022/05/08 13:52:16;;;;;;;3.72;2.20;;;;;;;;;;5051658;28;20032;-44
2022/05/08 13:54:43;;;;;;;4.03;2.42;;;;;;;;;;5051410;28;20351;-46
2022/05/08 13:57:09;;;;;;;6.75;2.80;;;;;;;;;;5052005;28;20104;-43
2022/05/08 13:59:35;;;;;;;6.65;3.40;;;;;;;;;;5051074;28;20094;-42
2022/05/08 14:02:02;;;;;;;5.43;2.80;;;;;;;;;;5051475;28;20129;-44
2022/05/08 14:04:28;;;;;;;5.13;3.35;;;;;;;;;;5051122;28;20031;-43
2022/05/08 14:06:54;;;;;;;3.70;2.60;;;;;;;;;;5050285;28;20032;-44
2022/05/08 14:09:20;;;;;;;4.53;2.30;;;;;;;;;;5051608;28;21484;-44
2022/05/08 14:11:52;;;;;;;5.13;2.78;;;;;;;;;;5051891;28;20025;-45
2022/05/08 14:14:18;;;;;;;5.32;2.65;;;;;;;;;;5049587;28;20037;-47
2022/05/08 14:16:44;;;;;;;5.07;3.15;;;;;;;;;;5051732;28;20074;-46
2022/05/08 14:19:10;;;;;;;4.53;2.88;;;;;;;;;;5052178;28;20028;-46
2022/05/08 14:21:36;;;;;;;5.82;2.75;;;;;;;;;;5050632;28;20475;-45
2022/05/08 14:24:02;;;;;;;5.10;2.83;;;;;;;;;;5051675;28;20024;-48
2022/05/08 14:26:28;;;;;;;4.82;2.90;;;;;;;;;;5051747;28;20039;-45
2022/05/08 14:28:54;;;;;;;13.38;7.97;;;;;;;;;;5050743;28;20028;-45
2022/05/08 14:36:50;;;;;;;3.95;2.63;;;;;;;;;;5051893;28;20443;-44
2022/05/08 14:39:19;;;;;;;4.50;2.53;;;;;;;;;;5051204;28;20123;-44
2022/05/08 14:41:45;;;;;;;6.13;2.80;;;;;;;;;;5048148;28;20043;-44
2022/05/08 14:44:11;;;;;;;5.38;3.10;;;;;;;;;;5051573;28;20020;-44
2022/05/08 14:46:38;;;;;;;5.57;2.88;;;;;;;;;;5049420;28;20025;-43
2022/05/08 14:49:07;;;;;;;4.53;2.95;;;;;;;;;;5049917;28;20047;-44
2022/05/08 14:51:34;;;;;;;3.47;2.78;;;;;;;;;;5051317;28;20056;-44
2022/05/08 14:54:00;;;;;;;7.38;3.75;;;;;;;;;;5050780;28;20025;-45
2022/05/08 14:56:26;;;;;;;8.20;2.70;;;;;;;;;;5050738;28;20032;-45
2022/05/08 14:58:53;;;;;;;4.78;3.25;;;;;;;;;;5047184;28;20474;-44
2022/05/08 15:01:19;;;;;;;43.72;29.17;;;;;;;;;;5050263;28;20362;-44
2022/05/08 15:03:45;;;;;;;17.17;10.07;;;;;;;;;;5050766;28;20145;-43
2022/05/08 15:06:12;;;;;;;6.45;3.75;;;;;;;;;;5050526;28;20025;-44
2022/05/08 15:08:42;;;;;;;3.45;2.75;;;;;;;;;;5050035;28;20035;-44
2022/05/08 15:11:08;;;;;;;5.25;3.58;;;;;;;;;;5050335;28;20092;-44
2022/05/08 15:13:35;;;;;;;11.90;5.25;;;;;;;;;;5048048;28;20293;-44
2022/05/08 15:16:01;;;;;;;10.10;5.53;;;;;;;;;;5050612;28;20044;-43
2022/05/08 15:21:12;;;;;;;5.85;2.80;;;;;;;;;;5050593;28;20106;-44
2022/05/08 15:23:38;;;;;;;6.03;3.22;;;;;;;;;;5049225;28;20051;-46
2022/05/08 15:26:04;;;;;;;4.35;3.10;;;;;;;;;;5050307;28;20072;-47